createdAt,value
2022-07-25T00:01:49.643Z,14.95
2022-07-25T00:04:17.919Z,14.30
2022-07-25T00:06:45.649Z,13.95
2022-07-25T00:09:12.787Z,13.60
2022-07-25T00:11:39.611Z,13.10
2022-07-25T00:14:06.998Z,12.70
2022-07-25T00:16:34.436Z,14.10
2022-07-25T00:19:01.283Z,13.30
2022-07-25T00:21:28.432Z,13.35
2022-07-25T00:23:55.230Z,13.00
2022-07-25T00:26:22.049Z,13.27
2022-07-25T00:28:48.772Z,13.90
2022-07-25T00:31:15.742Z,13.27
2022-07-25T00:33:42.819Z,13.40
2022-07-25T00:36:09.926Z,13.00
2022-07-25T00:38:36.927Z,13.25
2022-07-25T00:41:04.470Z,13.63
2022-07-25T00:43:31.895Z,13.57
2022-07-25T00:45:59.491Z,12.80
2022-07-25T00:48:28.528Z,13.00
2022-07-25T00:50:56.283Z,13.27
2022-07-25T00:53:23.910Z,13.32
2022-07-25T00:55:51.308Z,13.50
2022-07-25T00:58:18.903Z,13.70
2022-07-25T01:00:45.928Z,13.02
2022-07-25T01:03:13.107Z,13.90
2022-07-25T01:05:40.114Z,13.55
2022-07-25T01:08:07.859Z,14.10
2022-07-25T01:10:35.351Z,14.05
2022-07-25T01:13:02.587Z,14.32
2022-07-25T01:15:30.048Z,14.00
2022-07-25T01:17:57.139Z,14.60
2022-07-25T01:20:26.208Z,14.05
2022-07-25T01:22:53.878Z,14.70
2022-07-25T01:25:21.303Z,14.20
2022-07-25T01:27:54.624Z,13.35
2022-07-25T01:30:24.376Z,13.60
2022-07-25T01:32:51.505Z,14.13
2022-07-25T01:35:18.241Z,13.40
2022-07-25T01:37:45.826Z,13.70
2022-07-25T01:40:14.297Z,13.50
2022-07-25T01:42:41.929Z,14.85
2022-07-25T01:45:09.981Z,14.20
2022-07-25T01:47:36.786Z,13.80
2022-07-25T01:50:04.967Z,13.73
2022-07-25T01:52:31.805Z,14.88
2022-07-25T01:54:58.627Z,13.65
2022-07-25T01:57:30.129Z,13.88
2022-07-25T01:59:57.767Z,13.85
2022-07-25T02:02:24.508Z,13.45
2022-07-25T02:04:51.378Z,13.90
2022-07-25T02:07:18.216Z,12.97
2022-07-25T02:09:44.906Z,12.70
2022-07-25T02:12:11.669Z,13.55
2022-07-25T02:14:38.512Z,12.90
2022-07-25T02:17:05.586Z,14.32
2022-07-25T02:19:32.805Z,13.30
2022-07-25T02:21:59.767Z,14.10
2022-07-25T02:24:26.671Z,14.52
2022-07-25T02:26:53.475Z,14.48
2022-07-25T02:29:21.837Z,14.35
2022-07-25T02:31:49.086Z,13.82
2022-07-25T02:34:16.006Z,13.87
2022-07-25T02:36:43.394Z,13.88
2022-07-25T02:39:10.115Z,15.77
2022-07-25T02:41:36.888Z,13.70
2022-07-25T02:44:04.959Z,13.48
2022-07-25T02:46:32.262Z,12.98
2022-07-25T02:48:59.096Z,14.13
2022-07-25T02:51:26.145Z,14.00
2022-07-25T02:53:58.279Z,13.05
2022-07-25T02:56:30.095Z,12.90
2022-07-25T02:58:59.075Z,13.02
2022-07-25T03:01:25.804Z,12.88
2022-07-25T03:03:52.777Z,13.75
2022-07-25T03:06:19.596Z,13.13
2022-07-25T03:08:46.348Z,13.45
2022-07-25T03:11:14.204Z,13.30
2022-07-25T03:13:40.986Z,13.20
2022-07-25T03:16:08.219Z,12.37
2022-07-25T03:18:35.106Z,13.13
2022-07-25T03:21:02.000Z,14.02
2022-07-25T03:23:29.876Z,13.15
2022-07-25T03:25:57.112Z,13.40
2022-07-25T03:28:24.775Z,12.95
2022-07-25T03:30:52.318Z,13.70
2022-07-25T03:33:19.049Z,13.55
2022-07-25T03:35:45.832Z,12.23
2022-07-25T03:38:12.589Z,13.55
2022-07-25T03:40:39.543Z,13.83
2022-07-25T03:43:06.369Z,13.20
2022-07-25T03:45:33.177Z,13.05
2022-07-25T03:47:59.928Z,13.60
2022-07-25T03:50:26.687Z,13.55
2022-07-25T03:52:53.561Z,12.68
2022-07-25T03:55:20.242Z,12.43
2022-07-25T03:57:47.254Z,13.60
2022-07-25T04:00:14.393Z,13.73
2022-07-25T04:02:41.368Z,13.52
2022-07-25T04:05:08.867Z,13.50
2022-07-25T04:07:36.308Z,13.27
2022-07-25T04:10:07.742Z,13.32
2022-07-25T04:12:34.523Z,14.38
2022-07-25T04:15:01.509Z,14.27
2022-07-25T04:17:28.293Z,13.90
2022-07-25T04:19:54.990Z,13.93
2022-07-25T04:22:22.485Z,13.02
2022-07-25T04:24:49.289Z,14.57
2022-07-25T04:27:16.695Z,13.63
2022-07-25T04:29:43.624Z,14.48
2022-07-25T04:32:10.481Z,14.80
2022-07-25T04:34:37.319Z,13.73
2022-07-25T04:37:04.015Z,14.05
2022-07-25T04:39:30.724Z,13.82
2022-07-25T04:41:57.479Z,14.30
2022-07-25T04:44:24.420Z,15.10
2022-07-25T04:46:51.152Z,14.60
2022-07-25T04:49:18.020Z,14.57
2022-07-25T04:51:44.873Z,14.37
2022-07-25T04:54:11.596Z,14.38
2022-07-25T04:56:38.550Z,14.95
2022-07-25T04:59:06.748Z,14.85
2022-07-25T05:01:34.705Z,16.17
2022-07-25T05:04:01.795Z,14.80
2022-07-25T05:06:28.660Z,14.40
2022-07-25T05:08:55.622Z,15.20
2022-07-25T05:11:22.549Z,14.90
2022-07-25T05:13:49.412Z,15.20
2022-07-25T05:16:16.492Z,14.33
2022-07-25T05:18:43.319Z,14.48
2022-07-25T05:21:11.911Z,14.43
2022-07-25T05:23:39.314Z,14.63
2022-07-25T05:26:06.222Z,15.00
2022-07-25T05:28:33.003Z,14.30
2022-07-25T05:30:59.788Z,14.93
2022-07-25T05:33:26.681Z,14.20
2022-07-25T05:35:53.739Z,14.10
2022-07-25T05:38:20.846Z,14.60
2022-07-25T05:40:48.194Z,14.60
2022-07-25T05:43:15.159Z,13.98
2022-07-25T05:45:42.444Z,13.82
2022-07-25T05:48:09.160Z,14.10
2022-07-25T05:50:38.651Z,13.98
2022-07-25T05:53:05.424Z,14.30
2022-07-25T05:55:32.412Z,13.65
2022-07-25T05:57:59.861Z,12.63
2022-07-25T06:00:29.585Z,14.10
2022-07-25T06:03:00.459Z,12.98
2022-07-25T06:05:28.157Z,13.38
2022-07-25T06:07:54.938Z,13.30
2022-07-25T06:10:23.916Z,13.18
2022-07-25T06:12:50.778Z,13.48
2022-07-25T06:15:22.614Z,13.50
2022-07-25T06:17:51.701Z,13.27
2022-07-25T06:20:18.782Z,13.33
2022-07-25T06:22:45.543Z,13.47
2022-07-25T06:25:12.848Z,13.93
2022-07-25T06:27:39.682Z,13.00
2022-07-25T06:30:18.634Z,12.35
2022-07-25T06:32:47.219Z,13.00
2022-07-25T06:35:14.213Z,13.63
2022-07-25T06:37:41.006Z,13.23
2022-07-25T06:40:09.074Z,13.00
2022-07-25T06:42:44.455Z,13.40
2022-07-25T06:45:12.305Z,12.75
2022-07-25T06:47:40.768Z,12.80
2022-07-25T06:50:11.292Z,13.30
2022-07-25T06:52:39.185Z,13.77
2022-07-25T06:55:07.055Z,12.90
2022-07-25T06:57:33.887Z,13.25
2022-07-25T07:00:00.881Z,13.27
2022-07-25T07:02:27.635Z,13.40
2022-07-25T07:04:54.369Z,13.57
2022-07-25T07:07:21.307Z,13.63
2022-07-25T07:09:48.195Z,13.80
2022-07-25T07:12:14.941Z,13.30
2022-07-25T07:14:43.647Z,12.83
2022-07-25T07:17:10.560Z,13.30
2022-07-25T07:19:43.864Z,12.73
2022-07-25T07:22:10.584Z,13.27
2022-07-25T07:24:41.379Z,13.15
2022-07-25T07:27:10.796Z,12.70
2022-07-25T07:29:37.623Z,13.25
2022-07-25T07:32:06.585Z,12.38
2022-07-25T07:34:33.688Z,12.95
2022-07-25T07:37:00.464Z,13.20
2022-07-25T07:39:27.305Z,13.00
2022-07-25T07:41:54.079Z,13.43
2022-07-25T07:44:20.827Z,12.90
2022-07-25T07:46:47.798Z,14.40
2022-07-25T07:49:14.651Z,14.13
2022-07-25T07:51:41.430Z,14.50
2022-07-25T07:54:26.695Z,14.23
2022-07-25T07:56:53.466Z,14.45
2022-07-25T07:59:20.214Z,13.48
2022-07-25T08:01:47.057Z,14.45
2022-07-25T08:04:13.946Z,14.93
2022-07-25T08:06:42.909Z,13.38
2022-07-25T08:09:10.157Z,13.20
2022-07-25T08:11:37.276Z,12.85
2022-07-25T08:14:05.397Z,13.45
2022-07-25T08:16:32.985Z,14.20
2022-07-25T08:19:00.166Z,13.68
2022-07-25T08:21:26.921Z,13.30
2022-07-25T08:23:53.634Z,13.50
2022-07-25T08:26:20.673Z,13.50
2022-07-25T08:28:52.533Z,13.63
2022-07-25T08:31:28.108Z,13.15
2022-07-25T08:33:54.861Z,13.35
2022-07-25T08:36:21.625Z,13.40
2022-07-25T08:38:48.326Z,12.95
2022-07-25T08:41:15.110Z,13.10
2022-07-25T08:43:43.233Z,12.70
2022-07-25T08:46:10.719Z,13.40
2022-07-25T08:48:38.948Z,12.60
2022-07-25T08:51:07.068Z,12.55
2022-07-25T08:53:35.912Z,14.10
2022-07-25T08:56:13.289Z,13.70
2022-07-25T08:58:41.399Z,13.00
2022-07-25T09:01:08.763Z,12.38
2022-07-25T09:03:36.492Z,12.80
2022-07-25T09:06:16.805Z,13.00
2022-07-25T09:08:58.053Z,12.75
2022-07-25T09:11:37.020Z,13.23
2022-07-25T09:14:08.909Z,12.50
2022-07-25T09:16:40.371Z,13.32
2022-07-25T09:19:07.730Z,12.20
2022-07-25T09:21:34.637Z,12.00
2022-07-25T09:24:12.739Z,12.10
2022-07-25T09:26:51.359Z,11.93
2022-07-25T09:29:30.244Z,12.43
2022-07-25T09:31:58.906Z,13.20
2022-07-25T09:34:35.677Z,13.05
2022-07-25T09:37:04.822Z,12.52
2022-07-25T09:39:40.766Z,12.48
2022-07-25T09:42:26.749Z,12.40
2022-07-25T09:45:11.396Z,12.38
2022-07-25T09:47:57.356Z,11.40
2022-07-25T09:50:26.041Z,10.27
2022-07-25T09:52:54.405Z,11.10
2022-07-25T09:55:22.679Z,11.00
2022-07-25T09:57:52.435Z,10.77
2022-07-25T10:00:23.414Z,11.35
2022-07-25T10:03:07.874Z,11.38
2022-07-25T10:05:51.649Z,12.23
2022-07-25T10:08:19.883Z,10.75
2022-07-25T10:10:46.773Z,11.10
2022-07-25T10:13:28.390Z,10.65
2022-07-25T10:15:55.409Z,11.33
2022-07-25T10:18:25.239Z,11.52
2022-07-25T10:21:26.203Z,11.70
2022-07-25T10:24:04.403Z,11.30
2022-07-25T10:26:33.362Z,11.40
2022-07-25T10:29:01.793Z,11.63
2022-07-25T10:31:44.877Z,11.25
2022-07-25T10:34:14.736Z,10.65
2022-07-25T10:36:48.488Z,10.47
2022-07-25T10:39:17.578Z,10.88
2022-07-25T10:41:53.796Z,10.55
2022-07-25T10:44:20.665Z,11.20
2022-07-25T10:46:48.129Z,11.38
2022-07-25T10:49:32.242Z,11.38
2022-07-25T10:52:01.444Z,11.05
2022-07-25T10:54:34.633Z,10.25
2022-07-25T10:57:02.053Z,9.80
2022-07-25T10:59:40.049Z,10.10
2022-07-25T11:02:09.516Z,9.68
2022-07-25T11:04:36.784Z,9.80
2022-07-25T11:07:19.821Z,10.00
2022-07-25T11:09:57.528Z,9.77
2022-07-25T11:12:24.388Z,10.43
2022-07-25T11:14:51.333Z,10.00
2022-07-25T11:17:23.714Z,9.43
2022-07-25T11:19:56.421Z,9.50
2022-07-25T11:22:24.264Z,9.80
2022-07-25T11:24:51.307Z,9.65
2022-07-25T11:27:44.820Z,10.00
2022-07-25T11:30:11.792Z,9.40
2022-07-25T11:32:46.020Z,8.90
2022-07-25T11:35:14.530Z,9.55
2022-07-25T11:37:47.769Z,9.60
2022-07-25T11:40:18.728Z,10.20
2022-07-25T11:42:51.938Z,9.00
2022-07-25T11:45:18.687Z,9.25
2022-07-25T11:47:45.873Z,9.00
2022-07-25T11:50:14.961Z,9.33
2022-07-25T11:52:42.740Z,8.45
2022-07-25T11:55:16.822Z,7.75
2022-07-25T11:57:46.548Z,9.00
2022-07-25T12:00:18.532Z,9.07
2022-07-25T12:02:46.207Z,8.70
2022-07-25T12:05:17.764Z,8.70
2022-07-25T12:07:45.594Z,9.57
2022-07-25T12:10:19.315Z,8.40
2022-07-25T12:12:54.747Z,8.80
2022-07-25T12:15:29.980Z,8.95
2022-07-25T12:17:57.940Z,8.10
2022-07-25T12:20:30.487Z,8.95
2022-07-25T12:23:01.049Z,8.40
2022-07-25T12:25:31.136Z,7.80
2022-07-25T12:27:59.558Z,7.78
2022-07-25T12:30:28.544Z,8.15
2022-07-25T12:32:56.584Z,8.07
2022-07-25T12:35:23.838Z,7.80
2022-07-25T12:37:50.959Z,8.00
2022-07-25T12:40:18.244Z,7.75
2022-07-25T12:42:45.920Z,7.50
2022-07-25T12:45:15.566Z,8.50
2022-07-25T12:47:47.079Z,7.72
2022-07-25T12:50:15.167Z,8.20
2022-07-25T12:52:43.256Z,8.48
2022-07-25T12:55:12.764Z,8.13
2022-07-25T12:57:39.946Z,7.80
2022-07-25T13:00:10.891Z,8.40
2022-07-25T13:02:37.999Z,8.20
2022-07-25T13:05:05.742Z,8.32
2022-07-25T13:07:33.676Z,8.90
2022-07-25T13:10:01.145Z,8.80
2022-07-25T13:12:28.026Z,8.40
2022-07-25T13:14:54.949Z,8.50
2022-07-25T13:17:26.960Z,8.93
2022-07-25T13:19:55.486Z,8.77
2022-07-25T13:22:22.415Z,8.60
2022-07-25T13:24:49.201Z,9.20
2022-07-25T13:27:18.697Z,8.18
2022-07-25T13:29:45.637Z,9.10
2022-07-25T13:32:13.002Z,9.35
2022-07-25T13:34:39.990Z,9.07
2022-07-25T13:37:07.042Z,8.95
2022-07-25T13:39:35.663Z,8.60
2022-07-25T13:42:03.353Z,9.40
2022-07-25T13:44:30.194Z,9.20
2022-07-25T13:46:58.604Z,8.80
2022-07-25T13:49:26.243Z,9.50
2022-07-25T13:51:53.470Z,8.65
2022-07-25T13:54:21.141Z,8.25
2022-07-25T13:56:48.122Z,8.50
2022-07-25T13:59:20.913Z,7.25
2022-07-25T14:01:48.390Z,7.60
2022-07-25T14:04:15.366Z,7.80
2022-07-25T14:06:42.384Z,8.30
2022-07-25T14:09:09.774Z,7.60
2022-07-25T14:11:36.891Z,7.55
2022-07-25T14:14:03.745Z,8.15
2022-07-25T14:16:30.760Z,8.38
2022-07-25T14:18:57.610Z,8.65
2022-07-25T14:21:24.400Z,9.00
2022-07-25T14:23:52.429Z,9.10
2022-07-25T14:26:19.400Z,9.18
2022-07-25T14:28:46.418Z,9.25
2022-07-25T14:31:13.380Z,9.52
2022-07-25T14:33:40.582Z,9.48
2022-07-25T14:36:09.526Z,10.27
2022-07-25T14:38:36.555Z,9.40
2022-07-25T14:41:05.726Z,9.90
2022-07-25T14:43:35.923Z,9.70
2022-07-25T14:46:02.685Z,9.57
2022-07-25T14:48:29.641Z,9.68
2022-07-25T14:50:56.551Z,10.02
2022-07-25T14:53:23.337Z,9.40
2022-07-25T14:55:50.123Z,9.88
2022-07-25T14:58:16.905Z,9.85
2022-07-25T15:00:44.084Z,8.68
2022-07-25T15:03:10.976Z,9.27
2022-07-25T15:05:38.868Z,9.20
2022-07-25T15:08:06.453Z,8.80
2022-07-25T15:10:33.286Z,9.70
2022-07-25T15:13:28.340Z,8.93
2022-07-25T15:15:47.429Z,9.80
2022-07-25T15:18:14.829Z,9.10
2022-07-25T15:20:41.592Z,9.30
2022-07-25T15:23:08.335Z,9.38
2022-07-25T15:26:00.482Z,8.97
2022-07-25T15:28:22.051Z,10.10
2022-07-25T15:30:48.935Z,9.45
2022-07-25T15:33:16.051Z,10.13
2022-07-25T15:35:44.917Z,12.07
2022-07-25T15:38:12.233Z,10.07
2022-07-25T15:40:39.073Z,9.15
2022-07-25T15:43:05.783Z,8.63
2022-07-25T15:45:33.754Z,9.18
2022-07-25T15:48:01.490Z,8.73
2022-07-25T15:50:28.297Z,9.77
2022-07-25T15:52:55.186Z,9.05
2022-07-25T15:55:22.139Z,9.25
2022-07-25T15:57:48.908Z,9.27
2022-07-25T16:00:15.795Z,9.20
2022-07-25T16:02:42.640Z,9.75
2022-07-25T16:05:10.054Z,8.90
2022-07-25T16:07:36.895Z,9.60
2022-07-25T16:10:04.336Z,8.55
2022-07-25T16:12:31.200Z,9.50
2022-07-25T16:14:58.005Z,9.23
2022-07-25T16:17:26.498Z,9.50
2022-07-25T16:19:54.011Z,9.27
2022-07-25T16:22:21.185Z,10.25
2022-07-25T16:24:47.943Z,8.80
2022-07-25T16:27:14.887Z,9.10
2022-07-25T16:29:41.584Z,9.23
2022-07-25T16:32:08.804Z,9.00
2022-07-25T16:34:35.806Z,8.88
2022-07-25T16:37:03.655Z,8.45
2022-07-25T16:39:30.883Z,8.55
2022-07-25T16:41:57.759Z,8.57
2022-07-25T16:44:24.506Z,8.50
2022-07-25T16:46:51.422Z,8.60
2022-07-25T16:49:18.512Z,8.53
2022-07-25T16:51:45.586Z,8.50
2022-07-25T16:54:12.611Z,8.60
2022-07-25T16:56:39.890Z,8.55
2022-07-25T16:59:09.099Z,8.43
2022-07-25T17:01:36.177Z,8.03
2022-07-25T17:04:03.853Z,7.82
2022-07-25T17:06:30.824Z,7.65
2022-07-25T17:08:59.292Z,8.20
2022-07-25T17:11:27.362Z,7.80
2022-07-25T17:13:54.167Z,8.20
2022-07-25T17:16:21.022Z,7.00
2022-07-25T17:18:47.868Z,7.80
2022-07-25T17:21:16.753Z,10.85
2022-07-25T17:23:43.729Z,6.88
2022-07-25T17:26:10.613Z,7.82
2022-07-25T17:28:37.422Z,8.10
2022-07-25T17:31:04.529Z,7.87
2022-07-25T17:33:31.415Z,8.10
2022-07-25T17:35:59.254Z,8.30
2022-07-25T17:38:29.329Z,7.28
2022-07-25T17:40:58.436Z,7.80
2022-07-25T17:43:25.642Z,8.40
2022-07-25T17:45:52.515Z,7.35
2022-07-25T17:48:19.993Z,7.50
2022-07-25T17:50:46.825Z,9.10
2022-07-25T17:53:16.819Z,7.90
2022-07-25T17:55:44.208Z,9.63
2022-07-25T17:58:12.131Z,8.50
2022-07-25T18:00:39.943Z,7.60
2022-07-25T18:03:06.950Z,11.15
2022-07-25T18:05:34.193Z,7.30
2022-07-25T18:08:02.965Z,7.20
2022-07-25T18:10:30.694Z,8.20
2022-07-25T18:13:00.571Z,7.05
2022-07-25T18:15:28.036Z,7.20
2022-07-25T18:17:54.979Z,8.45
2022-07-25T18:20:21.790Z,7.80
2022-07-25T18:22:50.089Z,7.80
2022-07-25T18:25:17.105Z,8.27
2022-07-25T18:27:46.387Z,7.97
2022-07-25T18:30:14.241Z,10.02
2022-07-25T18:32:41.227Z,8.63
2022-07-25T18:35:08.495Z,10.10
2022-07-25T18:37:37.086Z,10.30
2022-07-25T18:40:05.796Z,7.68
2022-07-25T18:42:32.844Z,6.90
2022-07-25T18:44:59.826Z,6.97
2022-07-25T18:47:28.458Z,8.67
2022-07-25T18:49:59.654Z,6.60
2022-07-25T18:52:27.545Z,6.78
2022-07-25T18:54:54.614Z,6.93
2022-07-25T18:57:21.542Z,6.45
2022-07-25T18:59:48.605Z,8.07
2022-07-25T19:02:15.540Z,7.13
2022-07-25T19:04:42.652Z,7.65
2022-07-25T19:07:09.810Z,5.97
2022-07-25T19:09:36.787Z,6.70
2022-07-25T19:12:04.363Z,8.27
2022-07-25T19:14:31.677Z,4.63
2022-07-25T19:16:59.837Z,7.20
2022-07-25T19:19:27.175Z,8.05
2022-07-25T19:21:54.372Z,5.30
2022-07-25T19:24:22.046Z,6.70
2022-07-25T19:26:50.049Z,6.45
2022-07-25T19:29:18.211Z,5.95
2022-07-25T19:31:48.307Z,5.53
2022-07-25T19:34:15.156Z,7.55
2022-07-25T19:36:45.861Z,10.60
2022-07-25T19:39:12.993Z,5.95
2022-07-25T19:41:44.709Z,8.05
2022-07-25T19:44:13.585Z,5.82
2022-07-25T19:46:40.778Z,6.30
2022-07-25T19:49:08.011Z,5.78
2022-07-25T19:51:35.498Z,6.13
2022-07-25T19:54:03.663Z,8.23
2022-07-25T19:56:31.492Z,5.78
2022-07-25T19:58:58.682Z,5.88
2022-07-25T20:01:28.355Z,5.50
2022-07-25T20:03:55.394Z,5.25
2022-07-25T20:06:22.767Z,6.00
2022-07-25T20:08:49.859Z,4.50
2022-07-25T20:11:16.896Z,5.28
2022-07-25T20:13:43.827Z,4.63
2022-07-25T20:16:10.879Z,6.55
2022-07-25T20:18:38.899Z,5.85
2022-07-25T20:21:06.333Z,5.20
2022-07-25T20:23:33.200Z,7.65
2022-07-25T20:26:02.341Z,5.72
2022-07-25T20:28:29.247Z,6.63
2022-07-25T20:30:57.678Z,7.73
2022-07-25T20:33:27.126Z,4.70
2022-07-25T20:35:58.178Z,6.63
2022-07-25T20:38:28.201Z,5.60
2022-07-25T20:40:55.718Z,5.13
2022-07-25T20:43:22.724Z,5.85
2022-07-25T20:45:49.884Z,4.83
2022-07-25T20:48:17.271Z,5.72
2022-07-25T20:50:44.760Z,5.05
2022-07-25T20:53:12.177Z,4.88
2022-07-25T20:55:39.093Z,6.15
2022-07-25T20:58:06.351Z,4.23
2022-07-25T21:00:33.903Z,5.38
2022-07-25T21:03:01.618Z,4.80
2022-07-25T21:05:29.178Z,5.20
2022-07-25T21:07:56.292Z,5.10
2022-07-25T21:10:23.290Z,4.95
2022-07-25T21:12:50.281Z,5.45
2022-07-25T21:15:17.246Z,6.95
2022-07-25T21:17:44.428Z,5.18
2022-07-25T21:20:13.674Z,5.40
2022-07-25T21:22:40.816Z,4.80
2022-07-25T21:25:08.786Z,4.63
2022-07-25T21:27:36.972Z,5.10
2022-07-25T21:30:05.782Z,5.88
2022-07-25T21:32:32.916Z,5.30
2022-07-25T21:35:00.154Z,4.13
2022-07-25T21:37:27.107Z,3.70
2022-07-25T21:39:54.141Z,7.65
2022-07-25T21:42:20.938Z,3.58
2022-07-25T21:44:47.899Z,5.90
2022-07-25T21:47:14.707Z,5.27
2022-07-25T21:50:00.165Z,4.45
2022-07-25T21:52:34.410Z,5.10
2022-07-25T21:55:03.748Z,7.00
2022-07-25T21:57:30.965Z,4.55
2022-07-25T21:59:57.775Z,5.40
2022-07-25T22:02:24.684Z,5.35
2022-07-25T22:04:51.467Z,7.07
2022-07-25T22:07:18.919Z,5.00
2022-07-25T22:09:45.754Z,4.85
2022-07-25T22:12:12.884Z,3.53
2022-07-25T22:14:39.679Z,5.73
2022-07-25T22:17:06.782Z,4.60
2022-07-25T22:19:33.729Z,3.42
2022-07-25T22:22:00.938Z,5.57
2022-07-25T22:24:27.684Z,4.22
2022-07-25T22:26:54.476Z,4.63
2022-07-25T22:29:21.311Z,5.63
2022-07-25T22:31:48.800Z,5.10
2022-07-25T22:34:15.770Z,6.25
2022-07-25T22:36:42.826Z,4.40
2022-07-25T22:39:11.154Z,3.90
2022-07-25T22:41:38.528Z,5.30
2022-07-25T22:44:08.590Z,5.15
2022-07-25T22:46:35.805Z,4.80
2022-07-25T22:49:03.965Z,4.13
2022-07-25T22:51:31.139Z,4.45
2022-07-25T22:53:58.613Z,6.20
2022-07-25T22:56:26.362Z,5.05
2022-07-25T22:58:53.946Z,5.38
2022-07-25T23:01:21.503Z,4.78
2022-07-25T23:03:50.196Z,4.40
2022-07-25T23:06:18.734Z,4.93
2022-07-25T23:08:45.850Z,4.35
2022-07-25T23:11:12.567Z,6.30
2022-07-25T23:13:39.466Z,3.95
2022-07-25T23:16:10.148Z,3.60
2022-07-25T23:18:38.044Z,3.63
2022-07-25T23:21:05.162Z,6.38
2022-07-25T23:23:32.019Z,4.50
2022-07-25T23:25:58.855Z,4.22
2022-07-25T23:28:25.637Z,5.72
2022-07-25T23:30:52.361Z,3.90
2022-07-25T23:33:19.198Z,4.70
2022-07-25T23:35:52.389Z,3.40
2022-07-25T23:38:19.218Z,4.80
2022-07-25T23:40:46.123Z,4.85
2022-07-25T23:43:15.185Z,3.55
2022-07-25T23:45:56.057Z,5.30
2022-07-25T23:48:22.769Z,4.30
2022-07-25T23:50:49.464Z,5.03
2022-07-25T23:53:16.254Z,4.78
2022-07-25T23:55:42.935Z,5.23
2022-07-25T23:58:09.661Z,4.90
